createdAt,value
2017-05-26T00:00:13.397Z,10.10
2017-05-26T00:02:41.706Z,10.10
2017-05-26T00:05:10.001Z,9.90
2017-05-26T00:07:38.318Z,9.80
2017-05-26T00:10:06.606Z,9.70
2017-05-26T00:12:34.922Z,9.60
2017-05-26T00:15:03.248Z,9.60
2017-05-26T00:17:31.555Z,9.60
2017-05-26T00:19:59.860Z,9.50
2017-05-26T00:22:28.187Z,9.50
2017-05-26T00:24:56.502Z,9.50
2017-05-26T00:27:24.817Z,9.60
2017-05-26T00:29:53.147Z,9.60
2017-05-26T00:32:21.433Z,9.50
2017-05-26T00:34:49.735Z,9.40
2017-05-26T00:37:18.078Z,9.40
2017-05-26T00:39:46.384Z,9.40
2017-05-26T00:42:14.670Z,9.30
2017-05-26T00:44:42.989Z,9.30
2017-05-26T00:47:11.302Z,9.20
2017-05-26T00:49:39.602Z,9.20
2017-05-26T00:52:07.938Z,9.30
2017-05-26T00:54:36.238Z,9.30
2017-05-26T00:57:04.537Z,9.30
2017-05-26T00:59:32.863Z,9.20
2017-05-26T01:02:01.164Z,9.20
2017-05-26T01:04:29.450Z,9.20
2017-05-26T01:06:57.762Z,9.20
2017-05-26T01:09:26.050Z,9.10
2017-05-26T01:11:54.372Z,9.10
2017-05-26T01:14:22.846Z,9.00
2017-05-26T01:16:51.131Z,9.00
2017-05-26T01:19:19.458Z,9.10
2017-05-26T01:21:47.765Z,9.00
2017-05-26T01:24:16.065Z,8.90
2017-05-26T01:26:44.391Z,8.80
2017-05-26T01:29:12.691Z,8.80
2017-05-26T01:31:41.302Z,8.80
2017-05-26T01:34:09.804Z,8.70
2017-05-26T01:36:38.114Z,8.70
2017-05-26T01:39:06.407Z,8.60
2017-05-26T01:41:34.730Z,8.60
2017-05-26T01:44:03.096Z,8.60
2017-05-26T01:46:31.388Z,8.60
2017-05-26T01:48:59.714Z,8.60
2017-05-26T01:51:28.007Z,8.50
2017-05-26T01:53:56.299Z,8.40
2017-05-26T01:56:24.630Z,8.40
2017-05-26T01:58:52.930Z,8.50
2017-05-26T02:01:21.234Z,8.60
2017-05-26T02:03:49.546Z,8.70
2017-05-26T02:06:17.854Z,8.80
2017-05-26T02:08:46.146Z,8.80
2017-05-26T02:11:14.501Z,8.90
2017-05-26T02:13:42.807Z,9.00
2017-05-26T02:16:11.119Z,8.90
2017-05-26T02:18:39.442Z,8.90
2017-05-26T02:21:07.738Z,8.90
2017-05-26T02:23:36.030Z,9.00
2017-05-26T02:26:04.358Z,8.90
2017-05-26T02:28:32.650Z,8.90
2017-05-26T02:31:00.940Z,8.90
2017-05-26T02:33:29.282Z,8.90
2017-05-26T02:35:57.588Z,8.90
2017-05-26T02:38:25.891Z,8.80
2017-05-26T02:40:54.223Z,8.80
2017-05-26T02:43:22.517Z,8.80
2017-05-26T02:45:50.810Z,8.80
2017-05-26T02:48:19.124Z,8.80
2017-05-26T02:50:47.423Z,8.70
2017-05-26T02:53:15.712Z,8.70
2017-05-26T02:55:44.046Z,8.70
2017-05-26T02:58:12.473Z,8.60
2017-05-26T03:00:40.766Z,8.50
2017-05-26T03:03:09.087Z,8.50
2017-05-26T03:05:37.402Z,8.50
2017-05-26T03:08:05.708Z,8.50
2017-05-26T03:10:34.024Z,8.50
2017-05-26T03:13:02.323Z,8.50
2017-05-26T03:15:30.610Z,8.60
2017-05-26T03:17:58.948Z,8.60
2017-05-26T03:20:26.470Z,8.60
2017-05-26T03:22:54.765Z,8.60
2017-05-26T03:25:23.086Z,8.70
2017-05-26T03:27:51.382Z,8.70
2017-05-26T03:30:19.685Z,8.80
2017-05-26T03:32:47.995Z,8.80
2017-05-26T03:35:16.295Z,8.80
2017-05-26T03:37:44.596Z,8.80
2017-05-26T03:40:12.909Z,8.90
2017-05-26T03:42:41.199Z,9.00
2017-05-26T03:45:09.516Z,9.10
2017-05-26T03:47:37.819Z,9.10
2017-05-26T03:50:06.124Z,9.20
2017-05-26T03:52:34.442Z,9.30
2017-05-26T03:55:02.737Z,9.40
2017-05-26T03:57:31.033Z,9.50
2017-05-26T03:59:59.345Z,9.60
2017-05-26T04:02:27.635Z,9.70
2017-05-26T04:04:55.935Z,9.80
2017-05-26T04:07:24.259Z,9.80
2017-05-26T04:09:52.562Z,9.90
2017-05-26T04:12:20.859Z,10.00
2017-05-26T04:14:49.190Z,10.10
2017-05-26T04:17:17.482Z,10.10
2017-05-26T04:19:45.788Z,10.20
2017-05-26T04:22:14.110Z,10.20
2017-05-26T04:24:42.418Z,10.30
2017-05-26T04:27:10.732Z,10.50
2017-05-26T04:29:39.050Z,12.00
2017-05-26T04:32:07.355Z,16.40
2017-05-26T04:34:35.676Z,20.00
2017-05-26T04:37:03.998Z,22.40
2017-05-26T04:39:32.291Z,24.40
2017-05-26T04:42:00.594Z,25.00
2017-05-26T04:44:28.919Z,26.10
2017-05-26T04:46:57.220Z,27.00
2017-05-26T04:49:25.524Z,28.20
2017-05-26T04:51:53.867Z,28.80
2017-05-26T04:54:22.171Z,29.80
2017-05-26T04:56:50.485Z,30.70
2017-05-26T04:59:18.811Z,31.40
2017-05-26T05:01:47.101Z,31.50
2017-05-26T05:04:15.398Z,32.30
2017-05-26T05:06:43.726Z,32.80
2017-05-26T05:09:12.038Z,32.90
2017-05-26T05:11:40.354Z,32.90
2017-05-26T05:14:08.658Z,33.50
2017-05-26T05:16:36.958Z,34.20
2017-05-26T05:19:05.278Z,35.10
2017-05-26T05:21:33.583Z,35.20
2017-05-26T05:24:01.875Z,34.40
2017-05-26T05:26:30.206Z,33.10
2017-05-26T05:28:58.514Z,33.40
2017-05-26T05:31:26.810Z,33.70
2017-05-26T05:33:55.164Z,34.30
2017-05-26T05:36:23.470Z,34.50
2017-05-26T05:38:51.784Z,35.00
2017-05-26T05:41:20.102Z,34.50
2017-05-26T05:43:48.393Z,34.10
2017-05-26T05:46:16.891Z,32.90
2017-05-26T05:48:45.194Z,33.00
2017-05-26T05:51:13.497Z,33.60
2017-05-26T05:53:41.829Z,33.90
2017-05-26T05:56:10.133Z,33.30
2017-05-26T05:58:38.453Z,33.10
2017-05-26T06:01:06.773Z,33.40
2017-05-26T06:03:35.078Z,33.50
2017-05-26T06:06:03.378Z,34.60
2017-05-26T06:08:31.708Z,34.30
2017-05-26T06:11:00.009Z,34.90
2017-05-26T06:13:28.313Z,35.20
2017-05-26T06:15:56.647Z,35.40
2017-05-26T06:18:24.947Z,36.20
2017-05-26T06:20:53.286Z,35.70
2017-05-26T06:23:21.630Z,36.30
2017-05-26T06:25:49.940Z,35.20
2017-05-26T06:28:18.239Z,35.80
2017-05-26T06:30:46.579Z,36.00
2017-05-26T06:33:14.879Z,36.10
2017-05-26T06:35:43.184Z,35.80
2017-05-26T06:38:11.531Z,35.40
2017-05-26T06:40:39.833Z,34.00
2017-05-26T06:43:08.140Z,32.60
2017-05-26T06:45:36.483Z,31.50
2017-05-26T06:48:04.011Z,31.50
2017-05-26T06:50:32.315Z,29.40
2017-05-26T06:53:00.650Z,27.60
2017-05-26T06:55:28.955Z,26.30
2017-05-26T06:57:57.254Z,25.00
2017-05-26T07:00:25.593Z,23.80
2017-05-26T07:02:53.892Z,23.30
2017-05-26T07:05:22.199Z,22.90
2017-05-26T07:07:50.520Z,23.10
2017-05-26T07:10:18.835Z,22.90
2017-05-26T07:12:46.372Z,22.90
2017-05-26T07:15:14.709Z,22.40
2017-05-26T07:17:43.015Z,23.00
2017-05-26T07:20:11.328Z,22.80
2017-05-26T07:22:39.653Z,23.10
2017-05-26T07:25:07.948Z,23.90
2017-05-26T07:27:36.265Z,23.90
2017-05-26T07:30:04.597Z,23.60
2017-05-26T07:32:32.905Z,23.00
2017-05-26T07:35:01.222Z,22.80
2017-05-26T07:37:29.527Z,22.50
2017-05-26T07:39:57.825Z,21.90
2017-05-26T07:42:26.143Z,21.90
2017-05-26T07:44:54.456Z,21.90
2017-05-26T07:47:22.844Z,21.80
2017-05-26T07:49:51.216Z,21.90
2017-05-26T07:52:19.550Z,22.60
2017-05-26T07:54:48.148Z,22.60
2017-05-26T07:57:17.946Z,22.80
2017-05-26T07:59:45.824Z,22.80
2017-05-26T08:02:14.126Z,22.40
2017-05-26T08:04:42.458Z,22.70
2017-05-26T08:07:10.763Z,22.70
2017-05-26T08:09:39.075Z,22.30
2017-05-26T08:12:07.394Z,22.20
2017-05-26T08:14:35.694Z,21.80
2017-05-26T08:17:04.049Z,22.00
2017-05-26T08:19:32.342Z,23.00
2017-05-26T08:22:00.673Z,22.80
2017-05-26T08:24:28.991Z,22.80
2017-05-26T08:26:57.297Z,23.00
2017-05-26T08:29:25.619Z,23.30
2017-05-26T08:31:53.937Z,23.60
2017-05-26T08:34:22.234Z,23.80
2017-05-26T08:36:50.540Z,24.10
2017-05-26T08:39:18.859Z,23.60
2017-05-26T08:41:47.188Z,23.30
2017-05-26T08:44:15.491Z,23.00
2017-05-26T08:46:43.809Z,23.40
2017-05-26T08:49:12.125Z,23.40
2017-05-26T08:51:40.438Z,23.80
2017-05-26T08:54:08.774Z,24.40
2017-05-26T08:56:37.083Z,23.80
2017-05-26T08:59:05.387Z,23.70
2017-05-26T09:01:33.715Z,24.70
2017-05-26T09:04:02.025Z,25.40
2017-05-26T09:06:30.336Z,25.30
2017-05-26T09:08:58.653Z,24.90
2017-05-26T09:11:26.959Z,24.50
2017-05-26T09:13:55.275Z,24.90
2017-05-26T09:16:23.612Z,25.20
2017-05-26T09:18:51.909Z,26.10
2017-05-26T09:21:20.273Z,26.30
2017-05-26T09:23:49.365Z,26.10
2017-05-26T09:26:17.678Z,25.50
2017-05-26T09:28:45.975Z,25.50
2017-05-26T09:31:14.312Z,25.00
2017-05-26T09:33:42.637Z,24.90
2017-05-26T09:36:10.944Z,25.00
2017-05-26T09:38:39.270Z,25.40
2017-05-26T09:41:07.579Z,26.00
2017-05-26T09:43:35.891Z,26.30
2017-05-26T09:46:04.233Z,26.60
2017-05-26T09:48:32.530Z,26.10
2017-05-26T09:51:00.866Z,25.40
2017-05-26T09:53:29.182Z,25.00
2017-05-26T09:55:57.507Z,25.10
2017-05-26T09:58:25.853Z,26.30
2017-05-26T10:00:54.159Z,27.40
2017-05-26T10:03:22.454Z,27.70
2017-05-26T10:05:51.617Z,26.90
2017-05-26T10:08:19.914Z,26.00
2017-05-26T10:10:48.219Z,25.50
2017-05-26T10:13:16.548Z,25.10
2017-05-26T10:15:44.886Z,23.90
2017-05-26T10:18:13.271Z,24.00
2017-05-26T10:20:41.588Z,23.90
2017-05-26T10:23:09.894Z,24.40
2017-05-26T10:25:38.235Z,25.40
2017-05-26T10:28:06.562Z,26.00
2017-05-26T10:30:34.880Z,27.30
2017-05-26T10:33:03.203Z,28.10
2017-05-26T10:35:31.521Z,28.70
2017-05-26T10:38:00.671Z,29.10
2017-05-26T10:40:29.011Z,27.90
2017-05-26T10:42:57.311Z,27.00
2017-05-26T10:45:25.635Z,26.80
2017-05-26T10:47:53.963Z,26.80
2017-05-26T10:50:22.263Z,26.10
2017-05-26T10:52:49.809Z,26.10
2017-05-26T10:55:18.199Z,26.30
2017-05-26T10:57:46.510Z,25.80
2017-05-26T11:00:14.815Z,25.20
2017-05-26T11:02:43.138Z,25.20
2017-05-26T11:05:11.435Z,25.70
2017-05-26T11:07:39.744Z,26.50
2017-05-26T11:10:08.092Z,26.70
2017-05-26T11:12:36.443Z,26.40
2017-05-26T11:15:04.742Z,26.20
2017-05-26T11:17:33.087Z,26.10
2017-05-26T11:20:01.397Z,26.20
2017-05-26T11:22:29.702Z,25.90
2017-05-26T11:24:58.027Z,25.60
2017-05-26T11:27:26.372Z,25.80
2017-05-26T11:29:54.693Z,25.70
2017-05-26T11:32:23.040Z,26.10
2017-05-26T11:34:51.329Z,25.90
2017-05-26T11:37:19.642Z,26.30
2017-05-26T11:39:48.015Z,25.90
2017-05-26T11:42:16.315Z,26.00
2017-05-26T11:44:44.613Z,27.00
2017-05-26T11:47:12.950Z,26.70
2017-05-26T11:49:41.254Z,26.70
2017-05-26T11:52:09.549Z,25.70
2017-05-26T11:54:37.873Z,25.70
2017-05-26T11:57:06.178Z,26.10
2017-05-26T11:59:35.163Z,26.40
2017-05-26T12:02:03.487Z,26.30
2017-05-26T12:04:31.788Z,26.30
2017-05-26T12:07:00.096Z,26.80
2017-05-26T12:09:28.425Z,26.90
2017-05-26T12:11:56.726Z,27.00
2017-05-26T12:14:25.042Z,27.40
2017-05-26T12:16:53.363Z,27.20
2017-05-26T12:19:21.672Z,27.00
2017-05-26T12:21:49.974Z,26.80
2017-05-26T12:24:18.306Z,27.60
2017-05-26T12:26:46.620Z,27.40
2017-05-26T12:29:14.935Z,27.30
2017-05-26T12:31:43.349Z,27.20
2017-05-26T12:34:11.662Z,27.10
2017-05-26T12:36:39.963Z,26.30
2017-05-26T12:39:08.293Z,26.40
2017-05-26T12:41:36.631Z,27.10
2017-05-26T12:44:04.943Z,26.80
2017-05-26T12:46:33.277Z,26.70
2017-05-26T12:49:01.569Z,27.20
2017-05-26T12:51:29.865Z,27.80
2017-05-26T12:53:58.190Z,28.10
2017-05-26T12:56:26.511Z,28.30
2017-05-26T12:58:54.802Z,28.80
2017-05-26T13:01:23.125Z,29.30
2017-05-26T13:03:51.454Z,28.20
2017-05-26T13:06:19.770Z,27.70
2017-05-26T13:08:48.089Z,28.00
2017-05-26T13:11:16.387Z,27.80
2017-05-26T13:13:44.709Z,27.30
2017-05-26T13:16:13.038Z,26.80
2017-05-26T13:18:41.375Z,26.70
2017-05-26T13:21:09.710Z,27.10
2017-05-26T13:23:38.031Z,27.50
2017-05-26T13:26:06.349Z,27.80
2017-05-26T13:28:34.657Z,27.90
2017-05-26T13:31:02.967Z,27.40
2017-05-26T13:33:31.261Z,26.50
2017-05-26T13:35:59.605Z,26.10
2017-05-26T13:38:27.982Z,26.20
2017-05-26T13:40:56.280Z,26.50
2017-05-26T13:43:24.583Z,27.30
2017-05-26T13:45:52.905Z,28.20
2017-05-26T13:48:21.202Z,28.30
2017-05-26T13:50:49.534Z,28.10
2017-05-26T13:53:17.834Z,27.40
2017-05-26T13:55:46.164Z,27.30
2017-05-26T13:58:14.457Z,27.50
2017-05-26T14:00:43.639Z,27.10
2017-05-26T14:03:11.971Z,27.10
2017-05-26T14:05:40.271Z,27.40
2017-05-26T14:08:09.664Z,27.50
2017-05-26T14:10:37.986Z,27.60
2017-05-26T14:13:06.295Z,27.70
2017-05-26T14:15:34.599Z,27.70
2017-05-26T14:18:02.931Z,27.50
2017-05-26T14:20:31.235Z,26.50
2017-05-26T14:22:59.551Z,26.30
2017-05-26T14:25:27.843Z,26.20
2017-05-26T14:27:56.140Z,26.40
2017-05-26T14:30:24.464Z,26.50
2017-05-26T14:32:52.758Z,26.50
2017-05-26T14:35:21.058Z,27.10
2017-05-26T14:37:49.387Z,27.90
2017-05-26T14:40:17.687Z,28.60
2017-05-26T14:42:45.988Z,28.10
2017-05-26T14:45:14.309Z,27.70
2017-05-26T14:47:43.143Z,27.40
2017-05-26T14:50:12.206Z,26.40
2017-05-26T14:52:40.523Z,26.00
2017-05-26T14:55:08.837Z,26.00
2017-05-26T14:57:37.144Z,26.30
2017-05-26T15:00:05.453Z,26.40
2017-05-26T15:02:34.002Z,26.10
2017-05-26T15:05:02.362Z,25.80
2017-05-26T15:07:30.679Z,26.00
2017-05-26T15:09:58.985Z,26.40
2017-05-26T15:12:27.282Z,26.90
2017-05-26T15:14:55.631Z,27.40
2017-05-26T15:17:23.929Z,27.40
2017-05-26T15:19:52.239Z,27.20
2017-05-26T15:22:20.551Z,27.00
2017-05-26T15:24:48.844Z,27.00
2017-05-26T15:27:17.152Z,27.00
2017-05-26T15:29:45.519Z,26.50
2017-05-26T15:32:13.828Z,25.90
2017-05-26T15:34:42.138Z,26.10
2017-05-26T15:37:10.464Z,26.40
2017-05-26T15:39:38.770Z,26.50
2017-05-26T15:42:07.082Z,26.90
2017-05-26T15:44:35.395Z,26.80
2017-05-26T15:47:03.698Z,26.90
2017-05-26T15:49:31.992Z,26.60
2017-05-26T15:52:00.327Z,26.40
2017-05-26T15:54:28.819Z,26.50
2017-05-26T15:56:57.126Z,26.70
2017-05-26T15:59:25.446Z,27.50
2017-05-26T16:01:53.762Z,28.10
2017-05-26T16:04:22.060Z,28.60
2017-05-26T16:06:50.375Z,28.30
2017-05-26T16:09:18.698Z,28.10
2017-05-26T16:11:46.998Z,27.80
2017-05-26T16:14:15.315Z,26.80
2017-05-26T16:16:43.615Z,25.90
2017-05-26T16:19:11.932Z,25.40
2017-05-26T16:21:40.263Z,25.10
2017-05-26T16:24:08.600Z,25.20
2017-05-26T16:26:36.899Z,25.20
2017-05-26T16:29:05.218Z,25.10
2017-05-26T16:31:33.525Z,25.30
2017-05-26T16:34:01.824Z,25.50
2017-05-26T16:36:30.146Z,25.70
2017-05-26T16:38:58.447Z,25.60
2017-05-26T16:41:26.742Z,25.80
2017-05-26T16:43:55.080Z,25.70
2017-05-26T16:46:23.398Z,25.50
2017-05-26T16:48:52.126Z,25.50
2017-05-26T16:51:20.454Z,25.40
2017-05-26T16:53:48.751Z,25.30
2017-05-26T16:56:17.087Z,25.40
2017-05-26T16:58:45.412Z,25.50
2017-05-26T17:01:13.711Z,25.50
2017-05-26T17:03:42.035Z,25.40
2017-05-26T17:06:10.356Z,25.20
2017-05-26T17:08:38.663Z,25.10
2017-05-26T17:11:06.962Z,24.80
2017-05-26T17:13:35.295Z,24.80
2017-05-26T17:16:03.602Z,24.80
2017-05-26T17:18:31.895Z,24.70
2017-05-26T17:21:00.230Z,24.60
2017-05-26T17:23:28.538Z,24.40
2017-05-26T17:25:56.842Z,24.30
2017-05-26T17:28:25.170Z,24.30
2017-05-26T17:30:53.477Z,24.20
2017-05-26T17:33:21.780Z,24.10
2017-05-26T17:35:50.132Z,23.90
2017-05-26T17:38:18.437Z,23.90
2017-05-26T17:40:46.790Z,23.90
2017-05-26T17:43:15.117Z,23.90
2017-05-26T17:45:43.424Z,23.90
2017-05-26T17:48:11.731Z,23.80
2017-05-26T17:50:40.053Z,23.60
2017-05-26T17:53:08.341Z,23.50
2017-05-26T17:55:36.643Z,23.40
2017-05-26T17:58:04.970Z,23.30
2017-05-26T18:00:33.269Z,23.20
2017-05-26T18:03:01.574Z,23.10
2017-05-26T18:05:29.975Z,23.00
2017-05-26T18:07:58.274Z,22.80
2017-05-26T18:10:26.587Z,22.70
2017-05-26T18:12:54.910Z,22.50
2017-05-26T18:15:23.222Z,22.40
2017-05-26T18:17:51.526Z,22.20
2017-05-26T18:20:19.845Z,22.10
2017-05-26T18:22:48.151Z,22.00
2017-05-26T18:25:16.454Z,21.90
2017-05-26T18:27:44.782Z,21.80
2017-05-26T18:30:13.107Z,21.60
2017-05-26T18:32:41.415Z,21.50
2017-05-26T18:35:09.741Z,21.40
2017-05-26T18:37:38.035Z,21.30
2017-05-26T18:40:06.329Z,21.10
2017-05-26T18:42:34.676Z,21.00
2017-05-26T18:45:02.972Z,20.80
2017-05-26T18:47:31.265Z,20.60
2017-05-26T18:50:00.214Z,20.50
2017-05-26T18:52:28.524Z,20.40
2017-05-26T18:54:56.818Z,20.30
2017-05-26T18:57:25.149Z,20.20
2017-05-26T18:59:53.448Z,20.10
2017-05-26T19:02:21.743Z,20.00
2017-05-26T19:04:50.058Z,19.80
2017-05-26T19:07:18.375Z,19.60
2017-05-26T19:09:46.691Z,19.50
2017-05-26T19:12:15.014Z,19.30
2017-05-26T19:14:43.323Z,19.20
2017-05-26T19:17:11.629Z,19.00
2017-05-26T19:19:39.961Z,19.00
2017-05-26T19:22:08.276Z,19.00
2017-05-26T19:24:36.577Z,19.00
2017-05-26T19:27:04.917Z,18.90
2017-05-26T19:29:33.237Z,18.70
2017-05-26T19:32:01.543Z,18.50
2017-05-26T19:34:30.182Z,18.30
2017-05-26T19:36:58.527Z,18.10
2017-05-26T19:39:26.831Z,18.00
2017-05-26T19:41:55.167Z,17.80
2017-05-26T19:44:23.474Z,17.80
2017-05-26T19:46:51.781Z,17.80
2017-05-26T19:49:20.110Z,17.80
2017-05-26T19:51:48.414Z,17.80
2017-05-26T19:54:16.718Z,17.90
2017-05-26T19:56:45.042Z,17.90
2017-05-26T19:59:13.367Z,17.90
2017-05-26T20:01:40.899Z,17.90
2017-05-26T20:04:09.234Z,17.80
2017-05-26T20:06:37.526Z,17.70
2017-05-26T20:09:05.925Z,17.60
2017-05-26T20:11:34.243Z,17.70
2017-05-26T20:14:02.561Z,17.80
2017-05-26T20:16:30.857Z,18.00
2017-05-26T20:18:59.190Z,18.00
2017-05-26T20:21:27.511Z,18.10
2017-05-26T20:23:55.806Z,18.00
2017-05-26T20:26:24.130Z,18.00
2017-05-26T20:28:52.426Z,17.90
2017-05-26T20:31:20.734Z,17.70
2017-05-26T20:33:49.100Z,17.60
2017-05-26T20:36:17.401Z,17.40
2017-05-26T20:38:45.698Z,17.40
2017-05-26T20:41:14.027Z,17.30
2017-05-26T20:43:42.332Z,17.20
2017-05-26T20:46:10.626Z,17.10
2017-05-26T20:48:38.965Z,16.90
2017-05-26T20:51:07.271Z,16.70
2017-05-26T20:53:35.578Z,16.50
2017-05-26T20:56:03.943Z,16.40
2017-05-26T20:58:32.247Z,16.30
2017-05-26T21:01:00.543Z,16.10
2017-05-26T21:03:28.869Z,16.00
2017-05-26T21:05:57.174Z,15.80
2017-05-26T21:08:25.462Z,15.70
2017-05-26T21:10:53.780Z,15.70
2017-05-26T21:13:22.722Z,15.70
2017-05-26T21:15:51.820Z,15.70
2017-05-26T21:18:20.141Z,15.60
2017-05-26T21:20:48.443Z,15.60
2017-05-26T21:23:16.734Z,15.60
2017-05-26T21:25:45.070Z,15.40
2017-05-26T21:28:13.368Z,15.30
2017-05-26T21:30:41.702Z,15.20
2017-05-26T21:33:10.024Z,15.20
2017-05-26T21:35:38.319Z,15.10
2017-05-26T21:38:06.642Z,15.00
2017-05-26T21:40:34.985Z,15.00
2017-05-26T21:43:03.295Z,15.10
2017-05-26T21:45:31.604Z,15.20
2017-05-26T21:47:59.922Z,15.20
2017-05-26T21:50:28.229Z,15.10
2017-05-26T21:52:56.530Z,15.00
2017-05-26T21:55:24.837Z,14.90
2017-05-26T21:57:53.126Z,14.80
2017-05-26T22:00:21.425Z,14.70
2017-05-26T22:02:49.745Z,14.60
2017-05-26T22:05:18.102Z,14.60
2017-05-26T22:07:46.409Z,14.60
2017-05-26T22:10:14.735Z,14.50
2017-05-26T22:12:43.031Z,14.50
2017-05-26T22:15:11.346Z,14.50
2017-05-26T22:17:39.673Z,14.50
2017-05-26T22:20:07.971Z,14.50
2017-05-26T22:22:36.283Z,14.50
2017-05-26T22:25:04.599Z,14.40
2017-05-26T22:27:32.895Z,14.30
2017-05-26T22:30:01.187Z,14.20
2017-05-26T22:32:29.503Z,14.20
2017-05-26T22:34:57.796Z,14.10
2017-05-26T22:37:26.147Z,13.90
2017-05-26T22:39:54.473Z,13.90
2017-05-26T22:42:22.787Z,14.00
2017-05-26T22:44:51.086Z,14.00
2017-05-26T22:47:19.402Z,13.90
2017-05-26T22:49:47.726Z,13.90
2017-05-26T22:52:16.028Z,13.80
2017-05-26T22:54:44.363Z,13.80
2017-05-26T22:57:12.675Z,13.70
2017-05-26T22:59:40.974Z,13.70
2017-05-26T23:02:09.291Z,13.60
2017-05-26T23:04:37.591Z,13.60
2017-05-26T23:07:05.888Z,13.60
2017-05-26T23:09:34.205Z,13.50
2017-05-26T23:12:03.254Z,13.50
2017-05-26T23:14:32.136Z,13.40
2017-05-26T23:17:00.463Z,13.30
2017-05-26T23:19:28.762Z,13.20
2017-05-26T23:21:57.057Z,13.20
2017-05-26T23:24:25.389Z,13.20
2017-05-26T23:26:53.692Z,13.10
2017-05-26T23:29:22.056Z,13.00
2017-05-26T23:31:50.371Z,13.00
2017-05-26T23:34:18.691Z,12.90
2017-05-26T23:36:46.987Z,12.80
2017-05-26T23:39:15.305Z,12.80
2017-05-26T23:41:43.599Z,12.80
2017-05-26T23:44:11.894Z,12.70
2017-05-26T23:46:40.214Z,12.60
2017-05-26T23:49:08.508Z,12.60
2017-05-26T23:51:36.823Z,12.70
2017-05-26T23:54:05.163Z,12.70
2017-05-26T23:56:33.463Z,12.70
2017-05-26T23:59:01.782Z,12.70
